createdAt,value
2018-05-09T00:01:49.013Z,100236.23
2018-05-09T00:04:16.401Z,100244.59
2018-05-09T00:06:43.820Z,100245.42
2018-05-09T00:09:11.208Z,100241.64
2018-05-09T00:11:38.659Z,100239.59
2018-05-09T00:14:06.066Z,100241.08
2018-05-09T00:16:33.462Z,100243.28
2018-05-09T00:19:00.857Z,100244.41
2018-05-09T00:21:28.256Z,100240.99
2018-05-09T00:23:55.937Z,100238.88
2018-05-09T00:26:23.360Z,100232.09
2018-05-09T00:28:50.771Z,100235.66
2018-05-09T00:31:18.161Z,100232.36
2018-05-09T00:33:45.554Z,100225.58
2018-05-09T00:36:12.955Z,100225.61
2018-05-09T00:38:40.363Z,100218.90
2018-05-09T00:41:07.846Z,100224.13
2018-05-09T00:43:35.301Z,100226.02
2018-05-09T00:46:02.773Z,100226.05
2018-05-09T00:48:30.179Z,100219.78
2018-05-09T00:50:57.578Z,100215.45
2018-05-09T00:53:25.001Z,100219.56
2018-05-09T00:55:52.485Z,100213.34
2018-05-09T00:58:19.892Z,100217.03
2018-05-09T01:00:47.292Z,100218.00
2018-05-09T01:03:14.693Z,100213.40
2018-05-09T01:05:42.091Z,100216.98
2018-05-09T01:08:09.565Z,100219.89
2018-05-09T01:10:36.960Z,100217.31
2018-05-09T01:13:04.449Z,100208.68
2018-05-09T01:15:31.893Z,100212.47
2018-05-09T01:17:59.370Z,100208.19
2018-05-09T01:20:26.767Z,100205.38
2018-05-09T01:22:54.190Z,100206.66
2018-05-09T01:25:21.589Z,100203.16
2018-05-09T01:27:49.087Z,100205.88
2018-05-09T01:30:16.544Z,100203.70
2018-05-09T01:32:43.926Z,100207.30
2018-05-09T01:35:11.332Z,100208.55
2018-05-09T01:37:38.798Z,100206.39
2018-05-09T01:40:06.257Z,100202.97
2018-05-09T01:42:33.663Z,100205.05
2018-05-09T01:45:01.161Z,100200.63
2018-05-09T01:47:28.566Z,100203.38
2018-05-09T01:49:55.960Z,100202.04
2018-05-09T01:52:23.445Z,100198.86
2018-05-09T01:54:50.920Z,100202.73
2018-05-09T01:57:18.296Z,100197.85
2018-05-09T01:59:45.713Z,100195.45
2018-05-09T02:02:13.115Z,100202.37
2018-05-09T02:04:40.506Z,100206.80
2018-05-09T02:07:07.947Z,100198.17
2018-05-09T02:09:35.355Z,100204.08
2018-05-09T02:12:02.754Z,100203.80
2018-05-09T02:14:30.165Z,100208.09
2018-05-09T02:16:57.552Z,100210.34
2018-05-09T02:19:24.970Z,100194.99
2018-05-09T02:21:52.416Z,100199.59
2018-05-09T02:24:19.829Z,100197.38
2018-05-09T02:26:47.233Z,100198.20
2018-05-09T02:29:14.638Z,100192.81
2018-05-09T02:31:42.141Z,100189.36
2018-05-09T02:34:09.530Z,100197.61
2018-05-09T02:36:36.933Z,100195.39
2018-05-09T02:39:04.506Z,100194.25
2018-05-09T02:41:31.808Z,100194.06
2018-05-09T02:43:59.234Z,100192.78
2018-05-09T02:46:26.631Z,100191.06
2018-05-09T02:48:54.041Z,100188.58
2018-05-09T02:51:21.497Z,100192.87
2018-05-09T02:53:48.946Z,100190.11
2018-05-09T02:56:16.345Z,100196.52
2018-05-09T02:58:43.745Z,100202.05
2018-05-09T03:01:11.151Z,100205.83
2018-05-09T03:03:38.586Z,100196.97
2018-05-09T03:06:05.993Z,100199.53
2018-05-09T03:08:33.486Z,100203.81
2018-05-09T03:11:00.881Z,100202.86
2018-05-09T03:13:28.266Z,100196.11
2018-05-09T03:15:55.653Z,100202.23
2018-05-09T03:18:23.052Z,100208.55
2018-05-09T03:20:50.458Z,100205.45
2018-05-09T03:23:17.919Z,100208.16
2018-05-09T03:25:45.377Z,100215.20
2018-05-09T03:28:12.765Z,100209.53
2018-05-09T03:30:40.173Z,100215.45
2018-05-09T03:33:07.645Z,100219.73
2018-05-09T03:35:35.041Z,100218.46
2018-05-09T03:38:02.424Z,100216.63
2018-05-09T03:40:29.822Z,100218.48
2018-05-09T03:42:57.213Z,100215.91
2018-05-09T03:45:24.622Z,100214.17
2018-05-09T03:47:52.021Z,100217.04
2018-05-09T03:50:19.432Z,100215.48
2018-05-09T03:52:46.893Z,100223.88
2018-05-09T03:55:14.345Z,100218.17
2018-05-09T03:57:41.755Z,100217.00
2018-05-09T04:00:09.141Z,100218.55
2018-05-09T04:02:48.386Z,100211.61
2018-05-09T04:05:27.725Z,100220.66
2018-05-09T04:08:06.976Z,100218.36
2018-05-09T04:10:34.393Z,100213.30
2018-05-09T04:13:01.784Z,100218.46
2018-05-09T04:15:29.266Z,100220.75
2018-05-09T04:17:56.674Z,100216.26
2018-05-09T04:20:24.139Z,100212.55
2018-05-09T04:22:51.597Z,100218.14
2018-05-09T04:25:18.995Z,100222.62
2018-05-09T04:27:46.392Z,100220.49
2018-05-09T04:30:13.865Z,100211.20
2018-05-09T04:32:41.325Z,100216.66
2018-05-09T04:35:08.726Z,100222.91
2018-05-09T04:37:36.130Z,100216.32
2018-05-09T04:40:03.511Z,100215.25
2018-05-09T04:42:30.956Z,100217.16
2018-05-09T04:44:58.352Z,100212.24
2018-05-09T04:47:25.770Z,100217.12
2018-05-09T04:49:53.126Z,100217.25
2018-05-09T04:52:20.577Z,100212.91
2018-05-09T04:54:47.969Z,100218.32
2018-05-09T04:57:15.365Z,100216.80
2018-05-09T04:59:43.504Z,100222.54
2018-05-09T05:02:10.915Z,100217.27
2018-05-09T05:04:38.301Z,100214.61
2018-05-09T05:07:05.766Z,100218.36
2018-05-09T05:09:33.192Z,100217.91
2018-05-09T05:12:00.640Z,100214.25
2018-05-09T05:14:28.041Z,100211.53
2018-05-09T05:16:55.438Z,100213.03
2018-05-09T05:19:22.909Z,100213.23
2018-05-09T05:21:50.368Z,100213.42
2018-05-09T05:24:17.753Z,100216.97
2018-05-09T05:26:45.149Z,100215.64
2018-05-09T05:29:12.537Z,100213.37
2018-05-09T05:31:40.005Z,100218.45
2018-05-09T05:34:07.412Z,100225.65
2018-05-09T05:36:34.810Z,100221.77
2018-05-09T05:39:02.242Z,100225.27
2018-05-09T05:41:29.733Z,100226.59
2018-05-09T05:43:57.182Z,100222.59
2018-05-09T05:46:24.625Z,100222.35
2018-05-09T05:48:52.086Z,100224.45
2018-05-09T05:51:19.473Z,100216.09
2018-05-09T05:53:46.879Z,100217.77
2018-05-09T05:56:14.278Z,100222.03
2018-05-09T05:58:41.682Z,100220.71
2018-05-09T06:01:09.137Z,100219.06
2018-05-09T06:03:36.548Z,100231.37
2018-05-09T06:06:03.945Z,100232.06
2018-05-09T06:08:31.341Z,100232.52
2018-05-09T06:10:58.734Z,100231.70
2018-05-09T06:13:26.186Z,100238.63
2018-05-09T06:15:53.633Z,100232.33
2018-05-09T06:18:21.088Z,100229.94
2018-05-09T06:20:48.567Z,100222.02
2018-05-09T06:23:16.008Z,100224.55
2018-05-09T06:25:43.453Z,100224.81
2018-05-09T06:28:10.857Z,100226.81
2018-05-09T06:30:38.249Z,100221.73
2018-05-09T06:33:05.656Z,100227.16
2018-05-09T06:35:33.058Z,100225.59
2018-05-09T06:38:00.532Z,100225.05
2018-05-09T06:40:28.007Z,100236.52
2018-05-09T06:42:55.435Z,100230.66
2018-05-09T06:45:22.790Z,100236.19
2018-05-09T06:47:50.197Z,100243.94
2018-05-09T06:50:17.633Z,100240.02
2018-05-09T06:52:45.090Z,100246.52
2018-05-09T06:55:12.469Z,100247.67
2018-05-09T06:57:39.886Z,100246.06
2018-05-09T07:00:07.351Z,100249.39
2018-05-09T07:02:34.767Z,100253.92
2018-05-09T07:05:02.265Z,100256.48
2018-05-09T07:07:29.719Z,100258.41
2018-05-09T07:09:57.101Z,100256.30
2018-05-09T07:12:24.525Z,100250.65
2018-05-09T07:14:51.913Z,100258.09
2018-05-09T07:17:20.626Z,100252.72
2018-05-09T07:19:48.046Z,100254.84
2018-05-09T07:22:15.533Z,100261.97
2018-05-09T07:24:42.937Z,100255.73
2018-05-09T07:27:10.321Z,100249.30
2018-05-09T07:29:37.750Z,100249.36
2018-05-09T07:32:05.139Z,100253.48
2018-05-09T07:34:32.571Z,100246.99
2018-05-09T07:36:59.952Z,100240.45
2018-05-09T07:39:27.357Z,100249.08
2018-05-09T07:41:54.757Z,100247.69
2018-05-09T07:44:22.153Z,100254.02
2018-05-09T07:46:49.541Z,100250.98
2018-05-09T07:49:16.941Z,100250.04
2018-05-09T07:51:44.373Z,100252.78
2018-05-09T07:54:11.773Z,100248.52
2018-05-09T07:59:04.678Z,100249.55
2018-05-09T08:01:32.129Z,100245.46
2018-05-09T08:03:59.535Z,100235.84
2018-05-09T08:06:26.933Z,100246.98
2018-05-09T08:08:54.337Z,100238.75
2018-05-09T08:11:22.685Z,100244.43
2018-05-09T08:13:50.086Z,100237.95
2018-05-09T08:16:17.482Z,100237.73
2018-05-09T08:18:44.954Z,100240.92
2018-05-09T08:21:12.414Z,100239.53
2018-05-09T08:23:39.870Z,100243.13
2018-05-09T08:26:07.261Z,100243.85
2018-05-09T08:28:34.690Z,100245.98
2018-05-09T08:31:02.085Z,100241.23
2018-05-09T08:33:29.474Z,100247.58
2018-05-09T08:35:56.864Z,100242.20
2018-05-09T08:38:24.253Z,100246.02
2018-05-09T08:40:51.662Z,100243.58
2018-05-09T08:43:19.206Z,100240.33
2018-05-09T08:45:46.522Z,100244.34
2018-05-09T08:48:13.918Z,100242.45
2018-05-09T08:50:41.315Z,100237.46
2018-05-09T08:53:08.744Z,100234.27
2018-05-09T08:55:36.133Z,100231.15
2018-05-09T08:58:03.534Z,100232.76
2018-05-09T09:00:30.925Z,100233.23
2018-05-09T09:02:58.312Z,100228.14
2018-05-09T09:05:25.742Z,100223.36
2018-05-09T09:07:53.145Z,100219.50
2018-05-09T09:10:20.541Z,100221.17
2018-05-09T09:12:47.998Z,100220.39
2018-05-09T09:15:15.387Z,100218.44
2018-05-09T09:17:42.853Z,100213.55
2018-05-09T09:20:10.249Z,100210.20
2018-05-09T09:22:37.717Z,100216.26
2018-05-09T09:25:05.178Z,100215.27
2018-05-09T09:27:32.591Z,100220.63
2018-05-09T09:29:59.995Z,100217.13
2018-05-09T09:32:27.389Z,100216.99
2018-05-09T09:34:54.886Z,100211.73
2018-05-09T09:37:22.203Z,100203.09
2018-05-09T09:39:49.617Z,100206.47
2018-05-09T09:42:17.011Z,100200.64
2018-05-09T09:44:44.402Z,100198.41
2018-05-09T09:47:11.801Z,100190.44
2018-05-09T09:49:39.203Z,100196.31
2018-05-09T09:52:06.588Z,100181.77
2018-05-09T09:54:33.996Z,100187.65
2018-05-09T09:57:01.409Z,100185.87
2018-05-09T09:59:28.858Z,100185.29
2018-05-09T10:01:56.326Z,100186.80
2018-05-09T10:04:23.733Z,100186.28
2018-05-09T10:06:51.126Z,100189.34
2018-05-09T10:09:18.596Z,100187.10
2018-05-09T10:11:45.991Z,100194.85
2018-05-09T10:14:13.397Z,100175.36
2018-05-09T10:16:40.869Z,100178.03
2018-05-09T10:19:08.262Z,100170.79
2018-05-09T10:21:35.653Z,100168.88
2018-05-09T10:24:03.054Z,100172.20
2018-05-09T10:26:30.444Z,100164.13
2018-05-09T10:28:57.953Z,100165.58
2018-05-09T10:31:25.363Z,100169.06
2018-05-09T10:33:52.757Z,100162.66
2018-05-09T10:36:20.165Z,100161.66
2018-05-09T10:38:47.672Z,100165.92
2018-05-09T10:41:15.149Z,100152.89
2018-05-09T10:43:42.548Z,100149.25
2018-05-09T10:46:09.948Z,100145.87
2018-05-09T10:48:37.343Z,100140.43
2018-05-09T10:51:04.725Z,100148.61
2018-05-09T10:53:32.140Z,100144.38
2018-05-09T10:55:59.520Z,100135.05
2018-05-09T10:58:26.920Z,100143.14
2018-05-09T11:00:54.312Z,100140.91
2018-05-09T11:03:21.745Z,100141.57
2018-05-09T11:05:49.193Z,100139.97
2018-05-09T11:08:16.650Z,100130.70
2018-05-09T11:10:44.104Z,100144.63
2018-05-09T11:13:11.560Z,100141.55
2018-05-09T11:15:38.972Z,100138.16
2018-05-09T11:18:06.349Z,100137.30
2018-05-09T11:20:33.759Z,100134.84
2018-05-09T11:23:01.210Z,100134.75
2018-05-09T11:25:28.667Z,100133.26
2018-05-09T11:27:56.201Z,100125.19
2018-05-09T11:30:23.653Z,100125.31
2018-05-09T11:32:51.038Z,100116.05
2018-05-09T11:35:18.530Z,100116.16
2018-05-09T11:37:45.922Z,100114.44
2018-05-09T11:40:13.378Z,100109.12
2018-05-09T11:42:40.768Z,100115.81
2018-05-09T11:45:08.175Z,100106.81
2018-05-09T11:47:35.631Z,100107.82
2018-05-09T11:50:03.022Z,100098.33
2018-05-09T11:52:30.426Z,100103.77
2018-05-09T11:54:57.890Z,100100.12
2018-05-09T11:57:25.341Z,100092.84
2018-05-09T11:59:52.742Z,100080.13
2018-05-09T12:02:20.157Z,100079.11
2018-05-09T12:04:47.563Z,100087.61
2018-05-09T12:07:14.981Z,100079.55
2018-05-09T12:09:42.385Z,100087.92
2018-05-09T12:12:09.781Z,100085.90
2018-05-09T12:14:37.186Z,100085.02
2018-05-09T12:17:04.628Z,100074.87
2018-05-09T12:19:32.122Z,100073.64
2018-05-09T12:21:59.509Z,100064.02
2018-05-09T12:24:27.110Z,100063.34
2018-05-09T12:26:54.489Z,100068.00
2018-05-09T12:29:21.894Z,100064.50
2018-05-09T12:31:49.301Z,100054.19
2018-05-09T12:34:17.610Z,100051.88
2018-05-09T12:36:45.004Z,100050.28
2018-05-09T12:39:12.405Z,100041.95
2018-05-09T12:41:39.797Z,100041.95
2018-05-09T12:44:07.197Z,100043.03
2018-05-09T12:46:34.611Z,100052.98
2018-05-09T12:49:02.042Z,100049.05
2018-05-09T12:51:29.464Z,100037.02
2018-05-09T12:53:56.889Z,100041.03
2018-05-09T12:56:24.389Z,100042.27
2018-05-09T12:58:51.782Z,100040.77
2018-05-09T13:01:19.205Z,100038.09
2018-05-09T13:03:46.666Z,100034.44
2018-05-09T13:06:14.098Z,100036.20
2018-05-09T13:08:41.512Z,100021.52
2018-05-09T13:11:08.933Z,100016.13
2018-05-09T13:13:36.390Z,100011.34
2018-05-09T13:16:03.849Z,100010.28
2018-05-09T13:18:31.297Z,100016.70
2018-05-09T13:20:58.762Z,100009.58
2018-05-09T13:23:26.157Z,100016.34
2018-05-09T13:25:53.664Z,100008.31
2018-05-09T13:28:21.009Z,100004.25
2018-05-09T13:30:48.481Z,100002.95
2018-05-09T13:33:15.876Z,100001.38
2018-05-09T13:35:43.282Z,99997.16
2018-05-09T13:38:10.757Z,99998.29
2018-05-09T13:40:38.153Z,100000.31
2018-05-09T13:43:05.555Z,99995.42
2018-05-09T13:45:33.029Z,99999.49
2018-05-09T13:48:00.419Z,99992.64
2018-05-09T13:50:27.815Z,99985.44
2018-05-09T13:52:55.206Z,99990.00
2018-05-09T13:55:22.615Z,99984.01
2018-05-09T13:57:50.021Z,99988.64
2018-05-09T14:00:17.410Z,99990.70
2018-05-09T14:02:44.805Z,99988.49
2018-05-09T14:05:12.217Z,99983.28
2018-05-09T14:07:39.626Z,99989.39
2018-05-09T14:10:07.114Z,99979.93
2018-05-09T14:12:34.533Z,99984.95
2018-05-09T14:15:01.943Z,99976.88
2018-05-09T14:17:29.337Z,99976.03
2018-05-09T14:19:56.735Z,99974.67
2018-05-09T14:22:24.128Z,99966.05
2018-05-09T14:24:51.638Z,99966.73
2018-05-09T14:27:19.098Z,99968.30
2018-05-09T14:29:46.549Z,99963.28
2018-05-09T14:32:14.092Z,99957.67
2018-05-09T14:34:41.405Z,99963.80
2018-05-09T14:37:08.787Z,99951.85
2018-05-09T14:39:36.185Z,99952.55
2018-05-09T14:42:03.577Z,99937.92
2018-05-09T14:44:31.005Z,99940.07
2018-05-09T14:46:58.377Z,99944.21
2018-05-09T14:49:25.772Z,99940.99
2018-05-09T14:51:53.166Z,99934.61
2018-05-09T14:54:20.610Z,99932.48
2018-05-09T14:56:48.071Z,99935.92
2018-05-09T14:59:15.461Z,99931.25
2018-05-09T15:01:42.848Z,99921.83
2018-05-09T15:04:10.249Z,99918.28
2018-05-09T15:06:37.694Z,99921.21
2018-05-09T15:09:05.102Z,99918.83
2018-05-09T15:11:32.497Z,99913.31
2018-05-09T15:14:00.012Z,99913.03
2018-05-09T15:16:27.379Z,99909.05
2018-05-09T15:18:54.778Z,99913.78
2018-05-09T15:21:22.249Z,99913.29
2018-05-09T15:23:49.625Z,99914.93
2018-05-09T15:26:17.029Z,99906.22
2018-05-09T15:28:44.421Z,99902.13
2018-05-09T15:31:11.823Z,99907.70
2018-05-09T15:33:39.236Z,99904.08
2018-05-09T15:36:06.633Z,99900.25
2018-05-09T15:38:34.019Z,99898.61
2018-05-09T15:41:01.402Z,99895.39
2018-05-09T15:43:28.837Z,99897.95
2018-05-09T15:45:56.232Z,99895.71
2018-05-09T15:48:23.661Z,99896.22
2018-05-09T15:50:51.110Z,99895.45
2018-05-09T15:53:18.505Z,99889.48
2018-05-09T15:55:45.897Z,99896.31
2018-05-09T15:58:13.281Z,99890.88
2018-05-09T16:00:40.773Z,99890.31
2018-05-09T16:03:08.149Z,99896.22
2018-05-09T16:05:35.541Z,99887.13
2018-05-09T16:08:03.018Z,99885.27
2018-05-09T16:10:30.491Z,99881.08
2018-05-09T16:12:57.814Z,99880.07
2018-05-09T16:15:25.205Z,99881.90
2018-05-09T16:17:52.593Z,99889.57
2018-05-09T16:20:19.985Z,99886.04
2018-05-09T16:22:47.456Z,99885.47
2018-05-09T16:25:14.853Z,99879.02
2018-05-09T16:27:42.255Z,99889.26
2018-05-09T16:30:09.714Z,99888.82
2018-05-09T16:32:37.102Z,99896.88
2018-05-09T16:35:04.546Z,99902.95
2018-05-09T16:37:31.932Z,99904.87
2018-05-09T16:39:59.337Z,99904.72
2018-05-09T16:42:26.734Z,99898.27
2018-05-09T16:44:54.118Z,99903.15
2018-05-09T16:47:21.529Z,99903.29
2018-05-09T16:49:48.986Z,99896.81
2018-05-09T16:52:16.393Z,99895.25
2018-05-09T16:54:43.794Z,99902.41
2018-05-09T16:57:11.233Z,99892.27
2018-05-09T16:59:38.690Z,99895.66
2018-05-09T17:02:06.195Z,99887.78
2018-05-09T17:04:33.557Z,99890.47
2018-05-09T17:07:01.060Z,99889.26
2018-05-09T17:09:28.562Z,99892.09
2018-05-09T17:11:55.981Z,99893.24
2018-05-09T17:14:23.373Z,99890.17
2018-05-09T17:16:50.761Z,99890.38
2018-05-09T17:19:18.167Z,99897.48
2018-05-09T17:24:54.796Z,99894.45
2018-05-09T17:27:22.196Z,99889.55
2018-05-09T17:29:49.577Z,99892.47
2018-05-09T17:32:16.969Z,99886.52
2018-05-09T17:34:44.433Z,99899.83
2018-05-09T17:37:11.834Z,99894.70
2018-05-09T17:39:39.285Z,99891.61
2018-05-09T17:42:06.734Z,99890.05
2018-05-09T17:44:34.206Z,99881.14
2018-05-09T17:47:01.618Z,99885.53
2018-05-09T17:49:29.021Z,99882.12
2018-05-09T17:51:56.415Z,99881.34
2018-05-09T17:54:23.798Z,99879.65
2018-05-09T17:56:52.177Z,99875.75
2018-05-09T17:59:19.569Z,99874.44
2018-05-09T18:01:47.011Z,99879.28
2018-05-09T18:04:14.449Z,99870.81
2018-05-09T18:06:41.869Z,99873.69
2018-05-09T18:09:09.269Z,99870.56
2018-05-09T18:11:36.709Z,99871.82
2018-05-09T18:14:04.104Z,99868.15
2018-05-09T18:16:31.519Z,99869.91
2018-05-09T18:18:58.915Z,99872.80
2018-05-09T18:21:26.305Z,99875.19
2018-05-09T18:23:53.707Z,99874.77
2018-05-09T18:26:21.114Z,99877.35
2018-05-09T18:28:48.593Z,99872.27
2018-05-09T18:31:15.998Z,99877.14
2018-05-09T18:33:43.392Z,99874.00
2018-05-09T18:36:10.790Z,99881.06
2018-05-09T18:38:38.170Z,99878.93
2018-05-09T18:41:05.583Z,99874.59
2018-05-09T18:43:33.041Z,99872.26
2018-05-09T18:46:00.444Z,99877.14
2018-05-09T18:48:27.848Z,99875.66
2018-05-09T18:50:55.256Z,99880.34
2018-05-09T18:53:22.729Z,99882.53
2018-05-09T18:55:50.117Z,99884.38
2018-05-09T18:58:17.518Z,99877.25
2018-05-09T19:00:44.902Z,99881.09
2018-05-09T19:03:13.247Z,99883.23
2018-05-09T19:05:40.751Z,99882.31
2018-05-09T19:08:08.170Z,99877.83
2018-05-09T19:10:35.563Z,99881.50
2018-05-09T19:13:03.165Z,99878.48
2018-05-09T19:15:30.655Z,99877.47
2018-05-09T19:17:58.106Z,99883.42
2018-05-09T19:20:25.628Z,99880.13
2018-05-09T19:22:53.060Z,99880.88
2018-05-09T19:25:20.484Z,99876.41
2018-05-09T19:27:48.223Z,99874.88
2018-05-09T19:30:15.612Z,99881.02
2018-05-09T19:32:43.093Z,99880.30
2018-05-09T19:35:10.494Z,99882.78
2018-05-09T19:37:37.944Z,99881.64
2018-05-09T19:40:05.345Z,99880.92
2018-05-09T19:42:33.545Z,99892.02
2018-05-09T19:45:00.933Z,99889.33
2018-05-09T19:47:28.325Z,99890.31
2018-05-09T19:49:55.781Z,99895.48
2018-05-09T19:52:23.214Z,99896.91
2018-05-09T19:54:50.627Z,99893.64
2018-05-09T19:57:18.174Z,99889.92
2018-05-09T19:59:45.579Z,99891.83
2018-05-09T20:02:13.029Z,99896.15
2018-05-09T20:04:40.545Z,99889.30
2018-05-09T20:07:07.973Z,99894.69
2018-05-09T20:09:35.389Z,99894.37
2018-05-09T20:12:02.789Z,99888.81
2018-05-09T20:14:30.226Z,99886.55
2018-05-09T20:16:57.627Z,99883.26
2018-05-09T20:19:25.017Z,99887.78
2018-05-09T20:21:52.405Z,99891.79
2018-05-09T20:24:19.801Z,99884.88
2018-05-09T20:26:47.305Z,99886.34
2018-05-09T20:29:14.721Z,99888.17
2018-05-09T20:31:56.865Z,99891.36
2018-05-09T20:34:24.254Z,99890.34
2018-05-09T20:36:51.672Z,99890.24
2018-05-09T20:39:19.069Z,99887.77
2018-05-09T20:41:46.456Z,99891.24
2018-05-09T20:44:13.840Z,99886.61
2018-05-09T20:46:41.263Z,99887.34
2018-05-09T20:49:08.657Z,99884.44
2018-05-09T20:51:47.978Z,99883.86
2018-05-09T20:54:15.408Z,99886.82
2018-05-09T20:56:42.789Z,99886.33
2018-05-09T20:59:10.257Z,99894.54
2018-05-09T21:01:46.433Z,99891.09
2018-05-09T21:04:13.899Z,99888.75
2018-05-09T21:06:41.289Z,99891.92
2018-05-09T21:09:08.790Z,99891.38
2018-05-09T21:11:36.086Z,99890.65
2018-05-09T21:14:03.481Z,99888.83
2018-05-09T21:16:30.965Z,99885.52
2018-05-09T21:18:58.370Z,99889.22
2018-05-09T21:21:25.786Z,99887.94
2018-05-09T21:23:53.189Z,99887.84
2018-05-09T21:26:20.593Z,99884.56
2018-05-09T21:28:47.992Z,99884.66
2018-05-09T21:31:15.419Z,99884.78
2018-05-09T21:33:42.894Z,99882.89
2018-05-09T21:36:10.280Z,99884.09
2018-05-09T21:38:37.706Z,99876.08
2018-05-09T21:41:05.098Z,99886.98
2018-05-09T21:43:32.515Z,99880.15
2018-05-09T21:45:59.903Z,99878.47
2018-05-09T21:48:27.303Z,99877.38
2018-05-09T21:50:54.706Z,99874.78
2018-05-09T21:53:22.111Z,99874.02
2018-05-09T21:55:49.585Z,99873.58
2018-05-09T21:58:16.909Z,99878.17
2018-05-09T22:00:44.302Z,99869.65
2018-05-09T22:03:11.734Z,99880.58
2018-05-09T22:05:39.188Z,99877.26
2018-05-09T22:08:06.588Z,99875.05
2018-05-09T22:10:33.976Z,99879.61
2018-05-09T22:13:01.374Z,99873.68
2018-05-09T22:15:28.814Z,99870.38
2018-05-09T22:17:56.209Z,99871.05
2018-05-09T22:20:23.594Z,99869.01
2018-05-09T22:22:51.584Z,99863.67
2018-05-09T22:25:19.060Z,99857.72
2018-05-09T22:27:46.450Z,99863.30
2018-05-09T22:30:13.845Z,99861.33
2018-05-09T22:32:41.243Z,99853.19
2018-05-09T22:35:08.639Z,99853.99
2018-05-09T22:37:36.133Z,99854.84
2018-05-09T22:40:03.542Z,99850.38
2018-05-09T22:42:30.947Z,99851.48
2018-05-09T22:44:58.337Z,99848.81
2018-05-09T22:47:25.722Z,99846.87
2018-05-09T22:49:53.209Z,99851.77
2018-05-09T22:52:20.664Z,99843.52
2018-05-09T22:54:48.073Z,99840.69
2018-05-09T22:57:15.473Z,99845.39
2018-05-09T22:59:42.880Z,99839.56
2018-05-09T23:02:11.261Z,99842.44
2018-05-09T23:04:38.766Z,99834.02
2018-05-09T23:07:06.228Z,99835.44
2018-05-09T23:09:33.676Z,99834.31
2018-05-09T23:12:01.073Z,99829.15
2018-05-09T23:14:28.464Z,99831.86
2018-05-09T23:16:55.886Z,99828.95
2018-05-09T23:19:23.299Z,99828.67
2018-05-09T23:21:50.744Z,99826.25
2018-05-09T23:24:18.132Z,99822.80
2018-05-09T23:26:45.646Z,99822.33
2018-05-09T23:29:13.101Z,99815.33
2018-05-09T23:31:40.536Z,99823.59
2018-05-09T23:34:08.094Z,99820.35
2018-05-09T23:36:35.480Z,99813.30
2018-05-09T23:39:02.878Z,99816.13
2018-05-09T23:41:30.289Z,99814.44
2018-05-09T23:43:57.690Z,99812.78
2018-05-09T23:46:25.185Z,99809.77
2018-05-09T23:48:52.605Z,99809.20
2018-05-09T23:51:20.098Z,99813.53
2018-05-09T23:53:47.556Z,99804.47
2018-05-09T23:56:14.997Z,99802.11
2018-05-09T23:58:42.405Z,99799.59
